sensor_id;sensor_type;location;lat;lon;timestamp;pressure;altitude;pressure_sealevel;temperature;humidity
57000;BME280;42891;50.006;21.964;2022-11-20T00:01:46;98754.69;;;-1.73;76.76
57000;BME280;42891;50.006;21.964;2022-11-20T00:05:47;98764.28;;;-1.75;77.54
57000;BME280;42891;50.006;21.964;2022-11-20T00:09:47;98769.47;;;-1.75;77.34
57000;BME280;42891;50.006;21.964;2022-11-20T00:13:49;98772.06;;;-1.75;77.34
57000;BME280;42891;50.006;21.964;2022-11-20T00:17:50;98741.50;;;-1.87;76.87
57000;BME280;42891;50.006;21.964;2022-11-20T00:21:50;98747.38;;;-1.83;76.90
57000;BME280;42891;50.006;21.964;2022-11-20T00:25:55;98764.16;;;-1.72;76.87
57000;BME280;42891;50.006;21.964;2022-11-20T00:29:55;98745.38;;;-1.77;77.37
57000;BME280;42891;50.006;21.964;2022-11-20T00:33:56;98758.25;;;-1.75;77.57
57000;BME280;42891;50.006;21.964;2022-11-20T00:37:56;98763.50;;;-1.77;77.16
57000;BME280;42891;50.006;21.964;2022-11-20T00:41:56;98764.38;;;-1.78;76.72
57000;BME280;42891;50.006;21.964;2022-11-20T00:46:08;98744.69;;;-1.80;76.08
57000;BME280;42891;50.006;21.964;2022-11-20T00:50:08;98745.13;;;-1.70;75.61
57000;BME280;42891;50.006;21.964;2022-11-20T00:54:09;98728.13;;;-1.76;75.02
57000;BME280;42891;50.006;21.964;2022-11-20T00:58:09;98754.31;;;-1.63;75.25
57000;BME280;42891;50.006;21.964;2022-11-20T01:02:09;98739.38;;;-1.77;75.59
57000;BME280;42891;50.006;21.964;2022-11-20T01:06:14;98749.66;;;-1.76;73.95
57000;BME280;42891;50.006;21.964;2022-11-20T01:10:15;98723.00;;;-1.98;75.75
57000;BME280;42891;50.006;21.964;2022-11-20T01:14:18;98745.78;;;-1.86;77.08
57000;BME280;42891;50.006;21.964;2022-11-20T01:18:18;98742.72;;;-1.96;77.76
57000;BME280;42891;50.006;21.964;2022-11-20T01:22:18;98716.94;;;-2.19;78.19
57000;BME280;42891;50.006;21.964;2022-11-20T01:26:23;98767.97;;;-1.80;77.87
57000;BME280;42891;50.006;21.964;2022-11-20T01:30:23;98739.88;;;-1.90;78.26
57000;BME280;42891;50.006;21.964;2022-11-20T01:34:24;98758.31;;;-1.77;77.90
57000;BME280;42891;50.006;21.964;2022-11-20T01:38:25;98734.78;;;-1.91;78.46
57000;BME280;42891;50.006;21.964;2022-11-20T01:42:25;98756.63;;;-1.78;78.58
57000;BME280;42891;50.006;21.964;2022-11-20T01:46:58;98753.94;;;-1.75;77.71
57000;BME280;42891;50.006;21.964;2022-11-20T01:51:03;98744.19;;;-1.69;77.60
57000;BME280;42891;50.006;21.964;2022-11-20T01:55:07;98741.22;;;-1.81;77.27
57000;BME280;42891;50.006;21.964;2022-11-20T01:59:10;98738.50;;;-1.78;76.50
57000;BME280;42891;50.006;21.964;2022-11-20T02:03:16;98751.00;;;-1.67;76.26
57000;BME280;42891;50.006;21.964;2022-11-20T02:07:17;98740.66;;;-1.67;75.82
57000;BME280;42891;50.006;21.964;2022-11-20T02:11:18;98730.56;;;-1.73;75.67
57000;BME280;42891;50.006;21.964;2022-11-20T02:15:19;98704.31;;;-1.84;75.92
57000;BME280;42891;50.006;21.964;2022-11-20T02:19:26;98724.16;;;-1.64;74.95
57000;BME280;42891;50.006;21.964;2022-11-20T02:23:39;98718.31;;;-1.69;74.82
57000;BME280;42891;50.006;21.964;2022-11-20T02:27:43;98688.84;;;-1.86;74.14
57000;BME280;42891;50.006;21.964;2022-11-20T02:31:44;98704.63;;;-1.72;75.24
57000;BME280;42891;50.006;21.964;2022-11-20T02:35:46;98685.25;;;-1.83;75.47
57000;BME280;42891;50.006;21.964;2022-11-20T02:39:47;98697.75;;;-1.73;75.84
57000;BME280;42891;50.006;21.964;2022-11-20T02:43:48;98687.16;;;-1.87;76.92
57000;BME280;42891;50.006;21.964;2022-11-20T02:47:49;98704.31;;;-1.84;77.71
57000;BME280;42891;50.006;21.964;2022-11-20T02:51:49;98693.22;;;-1.88;77.19
57000;BME280;42891;50.006;21.964;2022-11-20T02:55:50;98686.28;;;-1.88;76.55
57000;BME280;42891;50.006;21.964;2022-11-20T02:59:50;98714.19;;;-1.74;77.20
57000;BME280;42891;50.006;21.964;2022-11-20T03:03:50;98702.34;;;-1.79;76.69
57000;BME280;42891;50.006;21.964;2022-11-20T03:07:52;98698.28;;;-1.85;76.75
57000;BME280;42891;50.006;21.964;2022-11-20T03:11:52;98721.91;;;-1.72;76.39
57000;BME280;42891;50.006;21.964;2022-11-20T03:15:52;98700.47;;;-1.76;75.95
57000;BME280;42891;50.006;21.964;2022-11-20T03:19:53;98699.66;;;-1.76;76.15
57000;BME280;42891;50.006;21.964;2022-11-20T03:23:54;98695.22;;;-1.74;74.81
57000;BME280;42891;50.006;21.964;2022-11-20T03:27:55;98693.00;;;-1.82;75.25
57000;BME280;42891;50.006;21.964;2022-11-20T03:31:55;98685.09;;;-1.99;75.77
57000;BME280;42891;50.006;21.964;2022-11-20T03:36:01;98701.50;;;-1.80;74.66
57000;BME280;42891;50.006;21.964;2022-11-20T03:40:01;98680.94;;;-1.83;74.35
57000;BME280;42891;50.006;21.964;2022-11-20T03:44:03;98678.94;;;-1.76;73.58
57000;BME280;42891;50.006;21.964;2022-11-20T03:48:04;98671.22;;;-1.78;73.73
57000;BME280;42891;50.006;21.964;2022-11-20T03:52:04;98656.84;;;-1.85;73.57
57000;BME280;42891;50.006;21.964;2022-11-20T03:56:05;98669.50;;;-1.98;74.03
57000;BME280;42891;50.006;21.964;2022-11-20T04:00:06;98657.06;;;-2.10;73.21
57000;BME280;42891;50.006;21.964;2022-11-20T04:04:06;98635.66;;;-2.14;73.84
57000;BME280;42891;50.006;21.964;2022-11-20T04:08:07;98654.94;;;-2.00;73.06
57000;BME280;42891;50.006;21.964;2022-11-20T04:12:07;98644.88;;;-2.07;72.04
57000;BME280;42891;50.006;21.964;2022-11-20T04:16:09;98637.69;;;-2.20;72.15
57000;BME280;42891;50.006;21.964;2022-11-20T04:20:09;98639.03;;;-2.32;73.75
57000;BME280;42891;50.006;21.964;2022-11-20T04:24:10;98667.09;;;-2.44;74.96
57000;BME280;42891;50.006;21.964;2022-11-20T04:28:10;98646.13;;;-2.58;75.07
57000;BME280;42891;50.006;21.964;2022-11-20T04:32:10;98661.63;;;-2.37;75.04
57000;BME280;42891;50.006;21.964;2022-11-20T04:36:18;98647.13;;;-2.40;73.48
57000;BME280;42891;50.006;21.964;2022-11-20T04:40:19;98643.81;;;-2.44;72.50
57000;BME280;42891;50.006;21.964;2022-11-20T04:44:19;98653.50;;;-2.28;73.78
57000;BME280;42891;50.006;21.964;2022-11-20T04:48:20;98612.22;;;-2.72;72.19
57000;BME280;42891;50.006;21.964;2022-11-20T04:52:20;98657.47;;;-2.40;72.63
57000;BME280;42891;50.006;21.964;2022-11-20T04:56:20;98657.16;;;-2.54;73.07
57000;BME280;42891;50.006;21.964;2022-11-20T05:00:21;98654.59;;;-2.54;73.58
57000;BME280;42891;50.006;21.964;2022-11-20T05:04:21;98660.91;;;-2.84;73.90
57000;BME280;42891;50.006;21.964;2022-11-20T05:08:21;98664.25;;;-2.80;73.74
57000;BME280;42891;50.006;21.964;2022-11-20T05:12:22;98665.41;;;-2.89;73.30
57000;BME280;42891;50.006;21.964;2022-11-20T05:16:23;98674.50;;;-2.79;73.44
57000;BME280;42891;50.006;21.964;2022-11-20T05:20:24;98663.00;;;-3.16;74.69
57000;BME280;42891;50.006;21.964;2022-11-20T05:24:24;98691.06;;;-3.06;74.89
57000;BME280;42891;50.006;21.964;2022-11-20T05:28:25;98676.34;;;-3.04;75.44
57000;BME280;42891;50.006;21.964;2022-11-20T05:32:26;98666.50;;;-2.95;75.17
57000;BME280;42891;50.006;21.964;2022-11-20T05:36:26;98642.22;;;-3.13;74.79
57000;BME280;42891;50.006;21.964;2022-11-20T05:40:26;98649.63;;;-3.03;75.15
57000;BME280;42891;50.006;21.964;2022-11-20T05:44:26;98645.66;;;-2.90;73.68
57000;BME280;42891;50.006;21.964;2022-11-20T05:48:27;98661.47;;;-2.98;72.20
57000;BME280;42891;50.006;21.964;2022-11-20T05:52:30;98653.16;;;-3.06;73.18
57000;BME280;42891;50.006;21.964;2022-11-20T05:56:30;98668.13;;;-2.92;72.79
57000;BME280;42891;50.006;21.964;2022-11-20T06:00:31;98647.59;;;-2.95;72.82
57000;BME280;42891;50.006;21.964;2022-11-20T06:04:31;98660.19;;;-2.87;72.38
57000;BME280;42891;50.006;21.964;2022-11-20T06:08:32;98652.50;;;-2.89;71.73
57000;BME280;42891;50.006;21.964;2022-11-20T06:12:32;98650.16;;;-2.95;72.52
57000;BME280;42891;50.006;21.964;2022-11-20T06:16:33;98649.56;;;-2.80;71.77
57000;BME280;42891;50.006;21.964;2022-11-20T06:20:33;98622.97;;;-3.28;71.70
57000;BME280;42891;50.006;21.964;2022-11-20T06:24:33;98634.53;;;-2.92;71.78
57000;BME280;42891;50.006;21.964;2022-11-20T06:28:34;98654.13;;;-2.86;71.24
57000;BME280;42891;50.006;21.964;2022-11-20T06:32:34;98659.59;;;-2.94;72.45
57000;BME280;42891;50.006;21.964;2022-11-20T06:36:34;98671.50;;;-2.90;72.95
57000;BME280;42891;50.006;21.964;2022-11-20T06:40:34;98665.13;;;-2.81;73.55
57000;BME280;42891;50.006;21.964;2022-11-20T06:44:35;98685.44;;;-2.72;74.08
57000;BME280;42891;50.006;21.964;2022-11-20T06:48:35;98672.69;;;-2.77;75.24
57000;BME280;42891;50.006;21.964;2022-11-20T06:52:35;98649.50;;;-2.78;75.59
57000;BME280;42891;50.006;21.964;2022-11-20T06:56:35;98635.50;;;-2.72;75.97
57000;BME280;42891;50.006;21.964;2022-11-20T07:00:36;98627.66;;;-2.71;76.49
57000;BME280;42891;50.006;21.964;2022-11-20T07:04:36;98639.34;;;-2.61;76.94
57000;BME280;42891;50.006;21.964;2022-11-20T07:08:36;98625.31;;;-2.55;76.57
57000;BME280;42891;50.006;21.964;2022-11-20T07:12:37;98636.06;;;-2.44;76.30
57000;BME280;42891;50.006;21.964;2022-11-20T07:16:37;98637.31;;;-2.32;76.31
57000;BME280;42891;50.006;21.964;2022-11-20T07:20:37;98630.63;;;-2.37;77.08
57000;BME280;42891;50.006;21.964;2022-11-20T07:24:38;98624.09;;;-2.26;77.89
57000;BME280;42891;50.006;21.964;2022-11-20T07:28:38;98623.59;;;-2.13;77.53
57000;BME280;42891;50.006;21.964;2022-11-20T07:32:38;98615.75;;;-2.12;77.56
57000;BME280;42891;50.006;21.964;2022-11-20T07:36:39;98627.94;;;-1.95;77.67
57000;BME280;42891;50.006;21.964;2022-11-20T07:40:39;98631.84;;;-1.84;78.24
57000;BME280;42891;50.006;21.964;2022-11-20T07:44:39;98636.72;;;-1.78;77.49
57000;BME280;42891;50.006;21.964;2022-11-20T07:48:40;98602.59;;;-1.86;78.96
57000;BME280;42891;50.006;21.964;2022-11-20T07:52:40;98609.09;;;-1.78;78.97
57000;BME280;42891;50.006;21.964;2022-11-20T07:56:40;98625.09;;;-1.68;78.38
57000;BME280;42891;50.006;21.964;2022-11-20T08:00:41;98622.84;;;-1.57;77.81
57000;BME280;42891;50.006;21.964;2022-11-20T08:04:41;98618.44;;;-1.55;77.60
57000;BME280;42891;50.006;21.964;2022-11-20T08:08:41;98600.16;;;-1.51;77.92
57000;BME280;42891;50.006;21.964;2022-11-20T08:12:46;98609.69;;;-1.52;78.83
57000;BME280;42891;50.006;21.964;2022-11-20T08:17:05;98580.38;;;-1.52;78.85
57000;BME280;42891;50.006;21.964;2022-11-20T08:21:05;98602.41;;;-1.44;79.01
57000;BME280;42891;50.006;21.964;2022-11-20T08:25:06;98595.63;;;-1.46;79.24
57000;BME280;42891;50.006;21.964;2022-11-20T08:29:07;98593.66;;;-1.41;80.59
57000;BME280;42891;50.006;21.964;2022-11-20T08:33:08;98583.09;;;-1.37;80.18
57000;BME280;42891;50.006;21.964;2022-11-20T08:37:09;98593.28;;;-1.33;79.53
57000;BME280;42891;50.006;21.964;2022-11-20T08:41:09;98585.66;;;-1.17;80.59
57000;BME280;42891;50.006;21.964;2022-11-20T08:45:25;98604.84;;;-1.22;80.03
57000;BME280;42891;50.006;21.964;2022-11-20T08:49:25;98596.94;;;-1.18;80.49
57000;BME280;42891;50.006;21.964;2022-11-20T08:53:26;98599.09;;;-1.09;80.75
57000;BME280;42891;50.006;21.964;2022-11-20T08:57:27;98599.41;;;-0.98;80.73
57000;BME280;42891;50.006;21.964;2022-11-20T09:01:28;98591.13;;;-0.87;80.29
57000;BME280;42891;50.006;21.964;2022-11-20T09:05:29;98590.16;;;-0.84;81.14
57000;BME280;42891;50.006;21.964;2022-11-20T09:09:29;98594.31;;;-0.82;81.40
57000;BME280;42891;50.006;21.964;2022-11-20T09:13:30;98597.34;;;-0.72;81.03
57000;BME280;42891;50.006;21.964;2022-11-20T09:17:31;98597.94;;;-0.67;79.69
57000;BME280;42891;50.006;21.964;2022-11-20T09:21:31;98595.50;;;-0.53;80.80
57000;BME280;42891;50.006;21.964;2022-11-20T09:25:32;98605.50;;;-0.45;81.29
57000;BME280;42891;50.006;21.964;2022-11-20T09:29:32;98581.09;;;-0.58;80.42
57000;BME280;42891;50.006;21.964;2022-11-20T09:33:32;98586.19;;;-0.39;80.01
57000;BME280;42891;50.006;21.964;2022-11-20T09:37:33;98585.81;;;-0.31;80.35
57000;BME280;42891;50.006;21.964;2022-11-20T09:41:49;98587.25;;;-0.26;80.35
57000;BME280;42891;50.006;21.964;2022-11-20T09:46:04;98580.16;;;-0.22;80.19
57000;BME280;42891;50.006;21.964;2022-11-20T09:50:35;98603.97;;;-0.31;80.71
57000;BME280;42891;50.006;21.964;2022-11-20T09:54:38;98604.19;;;-0.19;81.54
57000;BME280;42891;50.006;21.964;2022-11-20T09:58:45;98604.34;;;-0.04;81.26
57000;BME280;42891;50.006;21.964;2022-11-20T10:02:55;98609.72;;;0.09;81.06
57000;BME280;42891;50.006;21.964;2022-11-20T10:07:11;98591.47;;;0.10;81.53
57000;BME280;42891;50.006;21.964;2022-11-20T10:15:24;98587.38;;;0.22;82.10
57000;BME280;42891;50.006;21.964;2022-11-20T10:19:45;98583.03;;;0.23;81.76
57000;BME280;42891;50.006;21.964;2022-11-20T10:24:19;98590.22;;;0.17;81.18
57000;BME280;42891;50.006;21.964;2022-11-20T10:28:34;98590.31;;;0.16;81.46
57000;BME280;42891;50.006;21.964;2022-11-20T10:36:57;98575.94;;;0.42;81.71
57000;BME280;42891;50.006;21.964;2022-11-20T10:41:01;98581.47;;;0.52;81.44
57000;BME280;42891;50.006;21.964;2022-11-20T10:49:24;98571.66;;;0.73;80.29
57000;BME280;42891;50.006;21.964;2022-11-20T11:02:19;98537.34;;;0.98;79.27
57000;BME280;42891;50.006;21.964;2022-11-20T11:06:35;98542.13;;;1.06;78.34
57000;BME280;42891;50.006;21.964;2022-11-20T11:10:58;98516.41;;;1.16;79.18
57000;BME280;42891;50.006;21.964;2022-11-20T11:15:01;98516.09;;;1.36;78.03
57000;BME280;42891;50.006;21.964;2022-11-20T11:19:14;98503.28;;;1.33;76.62
57000;BME280;42891;50.006;21.964;2022-11-20T11:23:28;98535.44;;;4.33;69.80
57000;BME280;42891;50.006;21.964;2022-11-20T11:27:29;98516.53;;;6.96;58.40
57000;BME280;42891;50.006;21.964;2022-11-20T11:31:34;98536.63;;;8.33;53.34
57000;BME280;42891;50.006;21.964;2022-11-20T11:35:43;98534.88;;;9.14;49.26
57000;BME280;42891;50.006;21.964;2022-11-20T11:39:45;98529.16;;;9.48;47.27
57000;BME280;42891;50.006;21.964;2022-11-20T11:43:55;98521.25;;;9.48;48.24
57000;BME280;42891;50.006;21.964;2022-11-20T11:48:15;98512.88;;;7.20;53.61
57000;BME280;42891;50.006;21.964;2022-11-20T11:52:21;98499.09;;;6.74;56.92
57000;BME280;42891;50.006;21.964;2022-11-20T11:56:33;98488.22;;;6.12;59.05
57000;BME280;42891;50.006;21.964;2022-11-20T12:00:35;98476.78;;;6.13;59.95
57000;BME280;42891;50.006;21.964;2022-11-20T12:04:43;98494.34;;;7.63;55.56
57000;BME280;42891;50.006;21.964;2022-11-20T12:08:49;98501.59;;;8.02;53.32
57000;BME280;42891;50.006;21.964;2022-11-20T12:13:00;98508.75;;;8.21;51.75
57000;BME280;42891;50.006;21.964;2022-11-20T12:17:02;98510.97;;;7.64;53.85
57000;BME280;42891;50.006;21.964;2022-11-20T12:21:19;98512.63;;;8.27;52.25
57000;BME280;42891;50.006;21.964;2022-11-20T12:25:29;98508.34;;;8.66;51.20
57000;BME280;42891;50.006;21.964;2022-11-20T12:34:06;98500.13;;;7.57;54.65
57000;BME280;42891;50.006;21.964;2022-11-20T12:47:09;98492.47;;;6.47;58.54
57000;BME280;42891;50.006;21.964;2022-11-20T12:56:17;98484.25;;;5.61;60.01
57000;BME280;42891;50.006;21.964;2022-11-20T13:00:22;98479.88;;;5.26;62.09
57000;BME280;42891;50.006;21.964;2022-11-20T13:08:39;98480.50;;;4.70;63.51
57000;BME280;42891;50.006;21.964;2022-11-20T13:12:45;98469.78;;;4.24;65.32
57000;BME280;42891;50.006;21.964;2022-11-20T13:17:00;98488.78;;;3.89;67.21
57000;BME280;42891;50.006;21.964;2022-11-20T13:21:12;98475.69;;;4.02;67.59
57000;BME280;42891;50.006;21.964;2022-11-20T13:29:26;98464.63;;;4.36;65.69
57000;BME280;42891;50.006;21.964;2022-11-20T13:33:34;98471.31;;;4.40;65.22
57000;BME280;42891;50.006;21.964;2022-11-20T13:37:37;98447.59;;;4.30;65.90
57000;BME280;42891;50.006;21.964;2022-11-20T13:41:38;98452.38;;;4.12;66.40
57000;BME280;42891;50.006;21.964;2022-11-20T13:45:39;98451.56;;;3.86;68.00
57000;BME280;42891;50.006;21.964;2022-11-20T13:49:40;98437.53;;;3.63;68.92
57000;BME280;42891;50.006;21.964;2022-11-20T13:58:24;98437.22;;;3.54;70.06
57000;BME280;42891;50.006;21.964;2022-11-20T14:02:32;98430.00;;;3.32;70.52
57000;BME280;42891;50.006;21.964;2022-11-20T14:06:39;98415.47;;;3.02;71.31
57000;BME280;42891;50.006;21.964;2022-11-20T14:10:41;98436.00;;;2.94;71.47
57000;BME280;42891;50.006;21.964;2022-11-20T14:14:51;98429.53;;;2.74;72.35
57000;BME280;42891;50.006;21.964;2022-11-20T14:18:52;98426.56;;;2.66;72.51
57000;BME280;42891;50.006;21.964;2022-11-20T14:22:53;98450.16;;;2.77;73.47
57000;BME280;42891;50.006;21.964;2022-11-20T14:26:54;98456.75;;;2.83;72.85
57000;BME280;42891;50.006;21.964;2022-11-20T14:30:55;98443.94;;;2.52;74.54
57000;BME280;42891;50.006;21.964;2022-11-20T14:35:02;98457.03;;;2.65;74.75
57000;BME280;42891;50.006;21.964;2022-11-20T14:39:11;98439.56;;;2.53;75.25
57000;BME280;42891;50.006;21.964;2022-11-20T14:43:24;98444.91;;;2.64;75.19
57000;BME280;42891;50.006;21.964;2022-11-20T14:47:27;98456.19;;;2.65;75.52
57000;BME280;42891;50.006;21.964;2022-11-20T14:51:37;98464.00;;;2.65;75.80
57000;BME280;42891;50.006;21.964;2022-11-20T14:55:41;98456.59;;;2.59;75.69
57000;BME280;42891;50.006;21.964;2022-11-20T14:59:41;98459.91;;;2.61;76.19
57000;BME280;42891;50.006;21.964;2022-11-20T15:03:41;98458.44;;;2.56;76.04
57000;BME280;42891;50.006;21.964;2022-11-20T15:07:44;98440.94;;;2.59;76.29
57000;BME280;42891;50.006;21.964;2022-11-20T15:15:53;98451.22;;;2.47;76.44
57000;BME280;42891;50.006;21.964;2022-11-20T15:19:55;98430.22;;;2.36;76.54
57000;BME280;42891;50.006;21.964;2022-11-20T15:23:56;98439.59;;;2.38;76.70
57000;BME280;42891;50.006;21.964;2022-11-20T15:27:57;98433.25;;;2.43;76.91
57000;BME280;42891;50.006;21.964;2022-11-20T15:31:57;98432.81;;;2.36;76.90
57000;BME280;42891;50.006;21.964;2022-11-20T15:35:57;98443.44;;;2.33;77.19
57000;BME280;42891;50.006;21.964;2022-11-20T15:39:58;98440.72;;;2.34;77.07
57000;BME280;42891;50.006;21.964;2022-11-20T15:43:58;98430.22;;;2.36;77.45
57000;BME280;42891;50.006;21.964;2022-11-20T15:47:59;98424.56;;;2.29;76.96
57000;BME280;42891;50.006;21.964;2022-11-20T15:52:00;98451.09;;;2.21;76.70
57000;BME280;42891;50.006;21.964;2022-11-20T15:56:00;98441.56;;;2.08;76.77
57000;BME280;42891;50.006;21.964;2022-11-20T16:00:01;98438.13;;;1.93;76.67
57000;BME280;42891;50.006;21.964;2022-11-20T16:04:01;98434.13;;;2.01;76.81
57000;BME280;42891;50.006;21.964;2022-11-20T16:08:02;98446.31;;;2.01;76.68
57000;BME280;42891;50.006;21.964;2022-11-20T16:12:02;98410.72;;;1.87;76.58
57000;BME280;42891;50.006;21.964;2022-11-20T16:16:11;98394.09;;;1.75;76.54
57000;BME280;42891;50.006;21.964;2022-11-20T16:20:18;98419.06;;;1.92;77.02
57000;BME280;42891;50.006;21.964;2022-11-20T16:24:19;98425.78;;;1.96;77.66
57000;BME280;42891;50.006;21.964;2022-11-20T16:28:19;98420.84;;;1.92;78.00
57000;BME280;42891;50.006;21.964;2022-11-20T16:32:20;98428.00;;;1.88;78.81
57000;BME280;42891;50.006;21.964;2022-11-20T16:36:21;98424.19;;;1.94;78.65
57000;BME280;42891;50.006;21.964;2022-11-20T16:40:22;98423.25;;;1.95;78.64
57000;BME280;42891;50.006;21.964;2022-11-20T16:44:23;98412.38;;;1.88;78.70
57000;BME280;42891;50.006;21.964;2022-11-20T16:48:23;98425.31;;;1.90;79.04
57000;BME280;42891;50.006;21.964;2022-11-20T16:52:23;98419.19;;;1.91;79.20
57000;BME280;42891;50.006;21.964;2022-11-20T16:56:25;98425.22;;;1.91;79.57
57000;BME280;42891;50.006;21.964;2022-11-20T17:00:25;98400.59;;;1.82;79.73
57000;BME280;42891;50.006;21.964;2022-11-20T17:04:26;98397.63;;;1.74;79.92
57000;BME280;42891;50.006;21.964;2022-11-20T17:08:27;98421.69;;;1.92;80.06
57000;BME280;42891;50.006;21.964;2022-11-20T17:12:29;98408.19;;;1.85;79.79
57000;BME280;42891;50.006;21.964;2022-11-20T17:16:30;98415.66;;;1.92;80.09
57000;BME280;42891;50.006;21.964;2022-11-20T17:20:30;98426.53;;;1.84;80.53
57000;BME280;42891;50.006;21.964;2022-11-20T17:24:31;98428.72;;;1.90;80.84
57000;BME280;42891;50.006;21.964;2022-11-20T17:28:32;98424.38;;;1.76;81.15
57000;BME280;42891;50.006;21.964;2022-11-20T17:32:32;98426.00;;;1.64;81.57
57000;BME280;42891;50.006;21.964;2022-11-20T17:36:33;98420.88;;;1.63;81.07
57000;BME280;42891;50.006;21.964;2022-11-20T17:40:33;98417.16;;;1.67;81.50
57000;BME280;42891;50.006;21.964;2022-11-20T17:44:33;98383.72;;;1.46;80.93
57000;BME280;42891;50.006;21.964;2022-11-20T17:48:34;98398.56;;;1.59;81.02
57000;BME280;42891;50.006;21.964;2022-11-20T17:52:35;98386.41;;;1.45;80.95
57000;BME280;42891;50.006;21.964;2022-11-20T17:56:35;98390.75;;;1.44;80.46
57000;BME280;42891;50.006;21.964;2022-11-20T18:00:54;98361.31;;;1.44;79.73
57000;BME280;42891;50.006;21.964;2022-11-20T18:04:54;98371.75;;;1.29;80.15
57000;BME280;42891;50.006;21.964;2022-11-20T18:08:57;98354.75;;;1.24;80.23
57000;BME280;42891;50.006;21.964;2022-11-20T18:12:58;98352.16;;;1.24;80.48
57000;BME280;42891;50.006;21.964;2022-11-20T18:17:04;98330.50;;;1.09;80.29
57000;BME280;42891;50.006;21.964;2022-11-20T18:21:05;98374.88;;;1.34;79.63
57000;BME280;42891;50.006;21.964;2022-11-20T18:25:05;98368.84;;;1.34;79.02
57000;BME280;42891;50.006;21.964;2022-11-20T18:29:06;98370.88;;;1.29;79.09
57000;BME280;42891;50.006;21.964;2022-11-20T18:33:06;98391.59;;;1.30;78.93
57000;BME280;42891;50.006;21.964;2022-11-20T18:37:06;98387.97;;;1.33;78.89
57000;BME280;42891;50.006;21.964;2022-11-20T18:41:09;98385.38;;;1.33;79.01
57000;BME280;42891;50.006;21.964;2022-11-20T18:45:30;98368.56;;;1.24;79.61
57000;BME280;42891;50.006;21.964;2022-11-20T18:49:30;98371.53;;;1.32;80.32
57000;BME280;42891;50.006;21.964;2022-11-20T18:53:35;98359.28;;;1.20;80.89
57000;BME280;42891;50.006;21.964;2022-11-20T18:57:39;98375.94;;;1.32;81.26
57000;BME280;42891;50.006;21.964;2022-11-20T19:01:40;98372.28;;;1.34;81.54
57000;BME280;42891;50.006;21.964;2022-11-20T19:05:40;98363.09;;;1.29;81.27
57000;BME280;42891;50.006;21.964;2022-11-20T19:09:42;98368.75;;;1.35;81.36
57000;BME280;42891;50.006;21.964;2022-11-20T19:13:43;98366.44;;;1.31;81.81
57000;BME280;42891;50.006;21.964;2022-11-20T19:17:44;98354.06;;;1.34;81.71
57000;BME280;42891;50.006;21.964;2022-11-20T19:21:44;98353.03;;;1.37;81.61
57000;BME280;42891;50.006;21.964;2022-11-20T19:25:44;98347.94;;;1.35;81.30
57000;BME280;42891;50.006;21.964;2022-11-20T19:29:45;98367.63;;;1.40;80.92
57000;BME280;42891;50.006;21.964;2022-11-20T19:33:45;98368.47;;;1.40;80.56
57000;BME280;42891;50.006;21.964;2022-11-20T19:37:46;98330.78;;;1.18;81.23
57000;BME280;42891;50.006;21.964;2022-11-20T19:41:46;98359.16;;;1.36;80.99
57000;BME280;42891;50.006;21.964;2022-11-20T19:45:46;98352.56;;;1.30;80.63
57000;BME280;42891;50.006;21.964;2022-11-20T19:49:47;98371.63;;;1.16;80.57
57000;BME280;42891;50.006;21.964;2022-11-20T19:53:47;98358.09;;;1.11;80.92
57000;BME280;42891;50.006;21.964;2022-11-20T19:57:48;98363.16;;;0.98;80.14
57000;BME280;42891;50.006;21.964;2022-11-20T20:01:48;98364.09;;;0.97;79.92
57000;BME280;42891;50.006;21.964;2022-11-20T20:05:48;98343.16;;;0.70;81.02
57000;BME280;42891;50.006;21.964;2022-11-20T20:09:48;98367.72;;;0.95;80.91
57000;BME280;42891;50.006;21.964;2022-11-20T20:13:49;98365.03;;;0.96;80.20
57000;BME280;42891;50.006;21.964;2022-11-20T20:17:52;98361.75;;;0.93;79.67
57000;BME280;42891;50.006;21.964;2022-11-20T20:21:52;98346.44;;;0.88;79.54
57000;BME280;42891;50.006;21.964;2022-11-20T20:25:52;98357.13;;;0.83;80.04
57000;BME280;42891;50.006;21.964;2022-11-20T20:29:52;98358.13;;;0.81;80.21
57000;BME280;42891;50.006;21.964;2022-11-20T20:33:53;98344.28;;;0.80;79.28
57000;BME280;42891;50.006;21.964;2022-11-20T20:37:53;98333.44;;;0.74;78.14
57000;BME280;42891;50.006;21.964;2022-11-20T20:41:54;98339.06;;;0.66;78.63
57000;BME280;42891;50.006;21.964;2022-11-20T20:45:54;98320.41;;;0.59;79.25
57000;BME280;42891;50.006;21.964;2022-11-20T20:49:54;98332.91;;;0.53;79.15
57000;BME280;42891;50.006;21.964;2022-11-20T20:53:55;98327.59;;;0.40;80.83
57000;BME280;42891;50.006;21.964;2022-11-20T20:57:55;98324.13;;;0.25;81.18
57000;BME280;42891;50.006;21.964;2022-11-20T21:01:55;98341.47;;;0.08;81.91
57000;BME280;42891;50.006;21.964;2022-11-20T21:05:56;98350.22;;;0.07;83.01
57000;BME280;42891;50.006;21.964;2022-11-20T21:09:56;98343.28;;;0.22;81.29
57000;BME280;42891;50.006;21.964;2022-11-20T21:13:57;98335.75;;;0.33;79.69
57000;BME280;42891;50.006;21.964;2022-11-20T21:17:57;98328.97;;;0.31;79.20
57000;BME280;42891;50.006;21.964;2022-11-20T21:21:57;98335.75;;;0.33;78.64
57000;BME280;42891;50.006;21.964;2022-11-20T21:26:03;98314.50;;;0.27;78.96
57000;BME280;42891;50.006;21.964;2022-11-20T21:30:04;98326.47;;;0.29;78.26
57000;BME280;42891;50.006;21.964;2022-11-20T21:34:05;98333.16;;;0.33;77.45
57000;BME280;42891;50.006;21.964;2022-11-20T21:38:07;98336.00;;;0.29;78.30
57000;BME280;42891;50.006;21.964;2022-11-20T21:42:07;98332.34;;;0.17;80.47
57000;BME280;42891;50.006;21.964;2022-11-20T21:46:10;98318.84;;;-0.04;82.40
57000;BME280;42891;50.006;21.964;2022-11-20T21:50:10;98312.28;;;0.05;82.37
57000;BME280;42891;50.006;21.964;2022-11-20T21:54:11;98309.31;;;0.11;81.80
57000;BME280;42891;50.006;21.964;2022-11-20T21:58:11;98317.69;;;0.16;80.48
57000;BME280;42891;50.006;21.964;2022-11-20T22:02:11;98328.50;;;0.08;81.45
57000;BME280;42891;50.006;21.964;2022-11-20T22:06:12;98326.00;;;0.07;80.76
57000;BME280;42891;50.006;21.964;2022-11-20T22:10:12;98318.78;;;0.12;78.82
57000;BME280;42891;50.006;21.964;2022-11-20T22:14:12;98325.97;;;0.23;79.28